| time (UTC) | temp F | wind direction | speed MPH | gust MPH | rain 1hr in | rain 24hr in | rain mn in | humidity % | barometer mb |
| 20260906224551 | 72 | 300 | 2.0 | 6.0 | 0.00 | 0.00 | 0.00 | 33 | 1025.7 |
| 20260906224518 | 74 | 313 | 0.0 | 0.0 | 0.00 | 0.00 | 0.00 | 31 | 1004.6 |
| 20260906223048 | 72 | 299 | 3.0 | 6.0 | 0.00 | 0.00 | 0.00 | 31 | 1025.7 |
| 20260906223018 | 75 | 311 | 0.0 | 4.0 | 0.00 | 0.00 | 0.00 | 30 | 1004.7 |
| 20260906221549 | 73 | 303 | 2.0 | 6.0 | 0.00 | 0.00 | 0.00 | 31 | 1025.8 |
| 20260906221517 | 76 | 344 | 0.0 | 7.0 | 0.00 | 0.00 | 0.00 | 30 | 1004.6 |
| 20260906220042 | 73 | 320 | 5.0 | 10.0 | 0.00 | 0.00 | 0.00 | 31 | 1025.8 |
| 20260906220016 | 76 | 13 | 0.0 | 6.0 | 0.00 | 0.00 | 0.00 | 30 | 1004.6 |
| 20260906214548 | 73 | 302 | 6.0 | 12.0 | 0.00 | 0.00 | 0.00 | 30 | 1026.1 |
| 20260906214514 | 74 | 320 | 0.0 | 3.0 | 0.00 | 0.00 | 0.00 | 34 | 1004.9 |
| 20260906213054 | 72 | 299 | 5.0 | 9.0 | 0.00 | 0.00 | 0.00 | 30 | 1026.3 |
| 20260906213012 | 73 | 72 | 0.0 | 1.0 | 0.00 | 0.00 | 0.00 | 33 | 1005.2 |
| 20260906211548 | 72 | 297 | 5.0 | 11.0 | 0.00 | 0.00 | 0.00 | 30 | 1026.3 |
| 20260906211511 | 74 | 360 | 0.0 | 6.0 | 0.00 | 0.00 | 0.00 | 30 | 1005.4 |
| 20260906210043 | 74 | 271 | 2.0 | 6.0 | 0.00 | 0.00 | 0.00 | 30 | 1026.2 |
| 20260906210019 | 76 | 53 | 0.0 | 5.0 | 0.00 | 0.00 | 0.00 | 28 | 1005.2 |
| 20260906204558 | 74 | 0 | 2.0 | 6.0 | 0.00 | 0.00 | 0.00 | 29 | 1026.3 |
| 20260906204511 | 75 | 294 | 0.0 | 0.0 | 0.00 | 0.00 | 0.00 | 31 | 1005.4 |
| 20260906203056 | 74 | 322 | 2.0 | 6.0 | 0.00 | 0.00 | 0.00 | 28 | 1026.3 |
| 20260906203017 | 74 | 289 | 0.0 | 2.0 | 0.00 | 0.00 | 0.00 | 29 | 1005.4 |
| 20260906201550 | 73 | 0 | 1.0 | 4.0 | 0.00 | 0.00 | 0.00 | 28 | 1026.5 |
| 20260906201509 | 75 | 296 | 0.0 | 2.0 | 0.00 | 0.00 | 0.00 | 29 | 1005.6 |
| 20260906200046 | 74 | 0 | 1.0 | 4.0 | 0.00 | 0.00 | 0.00 | 28 | 1026.5 |
| 20260906200008 | 76 | 295 | 0.0 | 2.0 | 0.00 | 0.00 | 0.00 | 28 | 1005.7 |
| 20260906194541 | 73 | 294 | 2.0 | 6.0 | 0.00 | 0.00 | 0.00 | 29 | 1026.6 |
| 20260906194507 | 74 | 294 | 0.0 | 4.0 | 0.00 | 0.00 | 0.00 | 27 | 1005.7 |
| 20260906193057 | 73 | 305 | 2.0 | 6.0 | 0.00 | 0.00 | 0.00 | 28 | 1026.8 |
| 20260906193006 | 75 | 55 | 0.0 | 0.0 | 0.00 | 0.00 | 0.00 | 27 | 1005.8 |
| 20260906191547 | 73 | 307 | 1.0 | 6.0 | 0.00 | 0.00 | 0.00 | 28 | 1027.0 |
| 20260906191506 | 75 | 59 | 0.0 | 1.0 | 0.00 | 0.00 | 0.00 | 29 | 1006.1 |
| 20260906190047 | 73 | 0 | 0.0 | 4.0 | 0.00 | 0.00 | 0.00 | 28 | 1027.1 |
| 20260906190002 | 76 | 61 | 0.0 | 3.0 | 0.00 | 0.00 | 0.00 | 26 | 1006.2 |
| 20260906184605 | 77 | 360 | 0.0 | 4.0 | 0.00 | 0.00 | 0.00 | 27 | 1006.4 |
| 20260906184543 | 75 | 0 | 0.0 | 6.0 | 0.00 | 0.00 | 0.00 | 26 | 1027.4 |
| 20260906183057 | 77 | 360 | 0.0 | 1.0 | 0.00 | 0.00 | 0.00 | 27 | 1006.5 |
| 20260906183041 | 75 | 43 | 0.0 | 5.0 | 0.00 | 0.00 | 0.00 | 26 | 1027.7 |
| 20260906181554 | 75 | 0 | 0.0 | 6.0 | 0.00 | 0.00 | 0.00 | 26 | 1027.8 |
| 20260906180109 | 75 | 350 | 0.0 | 3.0 | 0.00 | 0.00 | 0.00 | 29 | 1007.0 |
| 20260906174549 | 74 | 181 | 4.0 | 8.0 | 0.00 | 0.00 | 0.00 | 28 | 1028.3 |
| 20260906174545 | 75 | 348 | 0.0 | 3.0 | 0.00 | 0.00 | 0.00 | 29 | 1007.8 |
| 20260906173048 | 73 | 150 | 0.0 | 8.0 | 0.00 | 0.00 | 0.00 | 28 | 1028.4 |
| 20260906173043 | 73 | 203 | 0.0 | 4.0 | 0.00 | 0.00 | 0.00 | 29 | 1008.0 |
| 20260906171557 | 72 | 0 | 0.0 | 0.0 | 0.00 | 0.00 | 0.00 | 30 | 1028.6 |
| 20260906171538 | 72 | 19 | 0.0 | 2.0 | 0.00 | 0.00 | 0.00 | 31 | 1008.3 |
| 20260906170045 | 70 | 0 | 0.0 | 5.0 | 0.00 | 0.00 | 0.00 | 30 | 1028.8 |
| 20260906170034 | 70 | 335 | 0.0 | 3.0 | 0.00 | 0.00 | 0.00 | 32 | 1008.5 |
| 20260906164551 | 69 | 0 | 0.0 | 3.0 | 0.00 | 0.00 | 0.00 | 31 | 1028.8 |
| 20260906164530 | 69 | 94 | 0.0 | 1.0 | 0.00 | 0.00 | 0.00 | 34 | 1008.7 |
| 20260906163056 | 68 | 309 | 0.0 | 6.0 | 0.00 | 0.00 | 0.00 | 31 | 1028.7 |
| 20260906163026 | 67 | 161 | 0.0 | 2.0 | 0.00 | 0.00 | 0.00 | 33 | 1008.5 |
| 20260906161548 | 66 | 0 | 0.0 | 4.0 | 0.00 | 0.00 | 0.00 | 38 | 1028.8 |
| 20260906161521 | 64 | 161 | 0.0 | 0.0 | 0.00 | 0.00 | 0.00 | 38 | 1008.6 |
| 20260906160051 | 64 | 0 | 0.0 | 3.0 | 0.00 | 0.00 | 0.00 | 41 | 1029.1 |
| 20260906160016 | 61 | 161 | 0.0 | 0.0 | 0.00 | 0.00 | 0.00 | 46 | 1009.0 |
| 20260906154549 | 61 | 162 | 3.0 | 5.0 | 0.00 | 0.00 | 0.00 | 47 | 1029.4 |
| 20260906154513 | 59 | 161 | 0.0 | 0.0 | 0.00 | 0.00 | 0.00 | 49 | 1009.3 |
| 20260906153048 | 59 | 150 | 3.0 | 6.0 | 0.00 | 0.00 | 0.00 | 50 | 1029.5 |
| 20260906153016 | 56 | 161 | 0.0 | 0.0 | 0.00 | 0.00 | 0.00 | 56 | 1009.6 |
| 20260906151546 | 55 | 146 | 2.0 | 4.0 | 0.00 | 0.00 | 0.00 | 56 | 1029.7 |
| 20260906151505 | 53 | 161 | 0.0 | 0.0 | 0.00 | 0.00 | 0.00 | 61 | 1009.9 |
| 20260906150042 | 53 | 157 | 2.0 | 5.0 | 0.00 | 0.00 | 0.00 | 61 | 1029.8 |
| 20260906150001 | 53 | 161 | 0.0 | 4.0 | 0.00 | 0.00 | 0.00 | 59 | 1009.9 |
| 20260906144600 | 51 | 154 | 0.0 | 2.0 | 0.00 | 0.00 | 0.00 | 63 | 1010.1 |
| 20260906144548 | 50 | 131 | 2.0 | 5.0 | 0.00 | 0.00 | 0.00 | 68 | 1029.8 |
| 20260906143058 | 50 | 142 | 1.0 | 4.0 | 0.00 | 0.00 | 0.00 | 64 | 1010.1 |
| 20260906143051 | 46 | 126 | 1.0 | 3.0 | 0.00 | 0.00 | 0.00 | 79 | 1030.0 |
| 20260906141556 | 48 | 184 | 0.0 | 1.0 | 0.00 | 0.00 | 0.00 | 67 | 1010.2 |
| 20260906141549 | 44 | 125 | 1.0 | 4.0 | 0.00 | 0.00 | 0.00 | 83 | 1030.1 |
| 20260906140104 | 47 | 249 | 1.0 | 10.0 | 0.00 | 0.00 | 0.00 | 69 | 1010.4 |
| 20260906140058 | 40 | 115 | 0.0 | 0.0 | 0.00 | 0.00 | 0.00 | 88 | 1030.2 |
| 20260906134552 | 46 | 158 | 0.0 | 0.0 | 0.00 | 0.00 | 0.00 | 71 | 1010.2 |
| 20260906134548 | 41 | 0 | 0.0 | 0.0 | 0.00 | 0.00 | 0.00 | 86 | 1030.1 |
| 20260906133114 | 41 | 0 | 0.0 | 0.0 | 0.00 | 0.00 | 0.00 | 87 | 1029.8 |
| 20260906133101 | 47 | 155 | 0.0 | 2.0 | 0.00 | 0.00 | 0.00 | 69 | 1009.9 |
| 20260906131609 | 47 | 147 | 0.0 | 3.0 | 0.00 | 0.00 | 0.00 | 68 | 1009.9 |
| 20260906131546 | 41 | 0 | 0.0 | 0.0 | 0.00 | 0.00 | 0.00 | 88 | 1029.7 |
| 20260906130105 | 40 | 0 | 0.0 | 0.0 | 0.00 | 0.00 | 0.00 | 88 | 1029.9 |
| 20260906130048 | 47 | 155 | 0.0 | 7.0 | 0.00 | 0.00 | 0.00 | 69 | 1009.9 |
| 20260906124547 | 46 | 249 | 0.0 | 2.0 | 0.00 | 0.00 | 0.00 | 70 | 1009.7 |
| 20260906124543 | 41 | 0 | 0.0 | 0.0 | 0.00 | 0.00 | 0.00 | 88 | 1029.7 |
| 20260906123050 | 40 | 0 | 0.0 | 0.0 | 0.00 | 0.00 | 0.00 | 87 | 1029.4 |
| 20260906123048 | 47 | 200 | 0.0 | 2.0 | 0.00 | 0.00 | 0.00 | 69 | 1009.5 |
| 20260906121547 | 47 | 224 | 0.0 | 1.0 | 0.00 | 0.00 | 0.00 | 68 | 1009.2 |
| 20260906120051 | 41 | 0 | 0.0 | 0.0 | 0.00 | 0.00 | 0.00 | 87 | 1029.2 |
| 20260906120049 | 48 | 241 | 0.0 | 3.0 | 0.00 | 0.00 | 0.00 | 67 | 1009.1 |
| 20260906114548 | 41 | 0 | 0.0 | 0.0 | 0.00 | 0.00 | 0.00 | 87 | 1029.3 |
| 20260906114542 | 48 | 225 | 0.0 | 8.0 | 0.00 | 0.00 | 0.00 | 66 | 1009.2 |
| 20260906113052 | 42 | 0 | 0.0 | 0.0 | 0.00 | 0.00 | 0.00 | 86 | 1029.4 |
| 20260906113041 | 48 | 234 | 0.0 | 3.0 | 0.00 | 0.00 | 0.00 | 66 | 1009.2 |
| 20260906111608 | 41 | 0 | 0.0 | 0.0 | 0.00 | 0.00 | 0.00 | 87 | 1029.4 |
| 20260906111539 | 48 | 181 | 0.0 | 5.0 | 0.00 | 0.00 | 0.00 | 67 | 1009.1 |
| 20260906110047 | 41 | 0 | 0.0 | 0.0 | 0.00 | 0.00 | 0.00 | 88 | 1029.2 |
| 20260906110040 | 48 | 248 | 0.0 | 3.0 | 0.00 | 0.00 | 0.00 | 69 | 1009.0 |
| 20260906104544 | 41 | 0 | 0.0 | 0.0 | 0.00 | 0.00 | 0.00 | 87 | 1029.4 |
| 20260906104539 | 47 | 264 | 0.0 | 3.0 | 0.00 | 0.00 | 0.00 | 70 | 1009.2 |
| 20260906103048 | 43 | 0 | 0.0 | 0.0 | 0.00 | 0.00 | 0.00 | 82 | 1029.0 |
| 20260906103036 | 48 | 165 | 0.0 | 0.0 | 0.00 | 0.00 | 0.00 | 69 | 1009.1 |
| 20260906101548 | 42 | 0 | 0.0 | 0.0 | 0.00 | 0.00 | 0.00 | 85 | 1029.0 |
| 20260906101534 | 49 | 165 | 0.0 | 0.0 | 0.00 | 0.00 | 0.00 | 68 | 1009.0 |
| 20260906100052 | 42 | 0 | 0.0 | 0.0 | 0.00 | 0.00 | 0.00 | 86 | 1029.0 |
| 20260906100035 | 49 | 155 | 0.0 | 2.0 | 0.00 | 0.00 | 0.00 | 66 | 1008.9 |
| 20260906094546 | 42 | 0 | 0.0 | 0.0 | 0.00 | 0.00 | 0.00 | 85 | 1029.0 |
| 20260906094532 | 50 | 205 | 0.0 | 1.0 | 0.00 | 0.00 | 0.00 | 63 | 1008.9 |
| 20260906093050 | 43 | 0 | 0.0 | 0.0 | 0.00 | 0.00 | 0.00 | 83 | 1029.0 |
| 20260906093042 | 50 | 249 | 0.0 | 5.0 | 0.00 | 0.00 | 0.00 | 64 | 1008.8 |
| 20260906091548 | 43 | 0 | 0.0 | 0.0 | 0.00 | 0.00 | 0.00 | 82 | 1028.9 |
| 20260906091531 | 50 | 229 | 0.0 | 3.0 | 0.00 | 0.00 | 0.00 | 62 | 1008.7 |
| 20260906090045 | 43 | 0 | 0.0 | 0.0 | 0.00 | 0.00 | 0.00 | 82 | 1029.0 |
| 20260906090030 | 51 | 190 | 0.0 | 4.0 | 0.00 | 0.00 | 0.00 | 61 | 1008.7 |
| 20260906084549 | 43 | 0 | 0.0 | 0.0 | 0.00 | 0.00 | 0.00 | 82 | 1029.0 |
| 20260906084529 | 51 | 203 | 0.0 | 2.0 | 0.00 | 0.00 | 0.00 | 60 | 1008.7 |
| 20260906083047 | 44 | 0 | 0.0 | 0.0 | 0.00 | 0.00 | 0.00 | 81 | 1029.1 |
| 20260906083029 | 52 | 215 | 0.0 | 3.0 | 0.00 | 0.00 | 0.00 | 59 | 1008.8 |
| 20260906081548 | 44 | 0 | 0.0 | 0.0 | 0.00 | 0.00 | 0.00 | 82 | 1029.2 |
| 20260906081530 | 52 | 213 | 0.0 | 3.0 | 0.00 | 0.00 | 0.00 | 60 | 1008.8 |
| 20260906080048 | 45 | 0 | 0.0 | 0.0 | 0.00 | 0.00 | 0.00 | 79 | 1029.3 |
| 20260906080027 | 52 | 244 | 0.0 | 3.0 | 0.00 | 0.00 | 0.00 | 60 | 1008.9 |
| 20260906074542 | 46 | 0 | 0.0 | 0.0 | 0.00 | 0.00 | 0.00 | 76 | 1029.3 |
| 20260906074528 | 52 | 240 | 0.0 | 5.0 | 0.00 | 0.00 | 0.00 | 61 | 1008.9 |
| 20260906073041 | 45 | 0 | 0.0 | 0.0 | 0.00 | 0.00 | 0.00 | 78 | 1029.4 |
| 20260906073027 | 51 | 232 | 0.0 | 3.0 | 0.00 | 0.00 | 0.00 | 64 | 1008.9 |
| 20260906071551 | 45 | 0 | 0.0 | 0.0 | 0.00 | 0.00 | 0.00 | 78 | 1029.3 |
| 20260906071521 | 49 | 278 | 0.0 | 0.0 | 0.00 | 0.00 | 0.00 | 67 | 1008.9 |
| 20260906070049 | 45 | 0 | 0.0 | 0.0 | 0.00 | 0.00 | 0.00 | 80 | 1029.4 |
| 20260906070018 | 48 | 278 | 0.0 | 0.0 | 0.00 | 0.00 | 0.00 | 71 | 1008.8 |
| 20260906064544 | 48 | 0 | 0.0 | 0.0 | 0.00 | 0.00 | 0.00 | 71 | 1029.2 |
| 20260906064520 | 48 | 278 | 0.0 | 0.0 | 0.00 | 0.00 | 0.00 | 72 | 1008.7 |
| 20260906063049 | 48 | 0 | 0.0 | 0.0 | 0.00 | 0.00 | 0.00 | 72 | 1029.0 |
| 20260906063015 | 49 | 278 | 0.0 | 0.0 | 0.00 | 0.00 | 0.00 | 73 | 1008.5 |
| 20260906061552 | 47 | 0 | 0.0 | 0.0 | 0.00 | 0.00 | 0.00 | 74 | 1029.0 |
| 20260906061513 | 49 | 278 | 0.0 | 0.0 | 0.00 | 0.00 | 0.00 | 72 | 1008.5 |
| 20260906060047 | 47 | 0 | 0.0 | 0.0 | 0.00 | 0.00 | 0.00 | 77 | 1029.1 |
| 20260906060015 | 50 | 278 | 0.0 | 0.0 | 0.00 | 0.00 | 0.00 | 72 | 1008.6 |
| 20260906054556 | 49 | 0 | 0.0 | 0.0 | 0.00 | 0.00 | 0.00 | 70 | 1029.0 |
| 20260906054509 | 51 | 278 | 0.0 | 0.0 | 0.00 | 0.00 | 0.00 | 71 | 1008.5 |
| 20260906053058 | 50 | 0 | 0.0 | 0.0 | 0.00 | 0.00 | 0.00 | 68 | 1029.1 |
| 20260906053016 | 51 | 278 | 0.0 | 0.0 | 0.00 | 0.00 | 0.00 | 69 | 1008.6 |
| 20260906051606 | 50 | 0 | 0.0 | 2.0 | 0.00 | 0.00 | 0.00 | 74 | 1028.9 |
| 20260906051507 | 52 | 278 | 0.0 | 0.0 | 0.00 | 0.00 | 0.00 | 69 | 1008.4 |
| 20260906050048 | 50 | 0 | 0.0 | 0.0 | 0.00 | 0.00 | 0.00 | 71 | 1028.7 |
| 20260906050006 | 53 | 278 | 0.0 | 0.0 | 0.00 | 0.00 | 0.00 | 66 | 1008.4 |
| 20260906044558 | 51 | 0 | 0.0 | 1.0 | 0.00 | 0.00 | 0.00 | 68 | 1028.6 |
| 20260906044504 | 54 | 278 | 0.0 | 0.0 | 0.00 | 0.00 | 0.00 | 66 | 1008.3 |
| 20260906043048 | 51 | 0 | 1.0 | 3.0 | 0.00 | 0.00 | 0.00 | 71 | 1028.6 |
| 20260906043003 | 55 | 278 | 0.0 | 0.0 | 0.00 | 0.00 | 0.00 | 64 | 1008.0 |
| 20260906041551 | 52 | 0 | 0.0 | 2.0 | 0.00 | 0.00 | 0.00 | 67 | 1028.6 |
| 20260906041505 | 56 | 278 | 0.0 | 0.0 | 0.00 | 0.00 | 0.00 | 62 | 1008.0 |
| 20260906040123 | 53 | 0 | 0.0 | 1.0 | 0.00 | 0.00 | 0.00 | 68 | 1028.5 |
| 20260906040002 | 57 | 278 | 0.0 | 0.0 | 0.00 | 0.00 | 0.00 | 61 | 1007.7 |
| 20260906034543 | 53 | 0 | 0.0 | 2.0 | 0.00 | 0.00 | 0.00 | 65 | 1028.4 |
| 20260906034501 | 58 | 278 | 0.0 | 0.0 | 0.00 | 0.00 | 0.00 | 60 | 1007.5 |
| 20260906033102 | 55 | 134 | 0.0 | 2.0 | 0.00 | 0.00 | 0.00 | 62 | 1028.4 |
| 20260906033002 | 59 | 278 | 0.0 | 0.0 | 0.00 | 0.00 | 0.00 | 58 | 1007.5 |
| 20260906031601 | 61 | 278 | 0.0 | 0.0 | 0.00 | 0.00 | 0.00 | 56 | 1007.3 |
| 20260906031546 | 57 | 0 | 0.0 | 0.0 | 0.00 | 0.00 | 0.00 | 59 | 1028.2 |
| 20260906030059 | 62 | 278 | 0.0 | 0.0 | 0.00 | 0.00 | 0.00 | 53 | 1007.1 |
| 20260906030043 | 59 | 0 | 0.0 | 0.0 | 0.00 | 0.00 | 0.00 | 54 | 1028.0 |
| 20260906024605 | 60 | 0 | 0.0 | 0.0 | 0.00 | 0.00 | 0.00 | 54 | 1027.8 |
| 20260906024559 | 63 | 278 | 0.0 | 0.0 | 0.00 | 0.00 | 0.00 | 52 | 1006.9 |
| 20260906023059 | 63 | 278 | 0.0 | 0.0 | 0.00 | 0.00 | 0.00 | 50 | 1006.8 |
| 20260906023057 | 61 | 0 | 0.0 | 1.0 | 0.00 | 0.00 | 0.00 | 52 | 1027.6 |
| 20260906021600 | 64 | 278 | 0.0 | 0.0 | 0.00 | 0.00 | 0.00 | 50 | 1006.5 |
| 20260906021548 | 62 | 0 | 0.0 | 0.0 | 0.00 | 0.00 | 0.00 | 50 | 1027.4 |
| 20260906020057 | 65 | 278 | 0.0 | 1.0 | 0.00 | 0.00 | 0.00 | 46 | 1006.5 |
| 20260906020042 | 62 | 0 | 0.0 | 1.0 | 0.00 | 0.00 | 0.00 | 49 | 1027.3 |
| 20260906014606 | 66 | 278 | 0.0 | 1.0 | 0.00 | 0.00 | 0.00 | 46 | 1006.1 |
| 20260906014549 | 63 | 0 | 0.0 | 0.0 | 0.00 | 0.00 | 0.00 | 47 | 1027.1 |
| 20260906013057 | 67 | 302 | 0.0 | 3.0 | 0.00 | 0.00 | 0.00 | 44 | 1006.3 |
| 20260906013048 | 64 | 0 | 0.0 | 1.0 | 0.00 | 0.00 | 0.00 | 45 | 1027.1 |
| 20260906011610 | 68 | 333 | 0.0 | 0.0 | 0.00 | 0.00 | 0.00 | 43 | 1006.0 |
| 20260906011548 | 66 | 0 | 0.0 | 1.0 | 0.00 | 0.00 | 0.00 | 43 | 1026.9 |
| 20260906010056 | 69 | 333 | 0.0 | 0.0 | 0.00 | 0.00 | 0.00 | 41 | 1005.9 |
| 20260906010049 | 65 | 0 | 0.0 | 0.0 | 0.00 | 0.00 | 0.00 | 44 | 1026.9 |
| 20260906004555 | 69 | 333 | 0.0 | 0.0 | 0.00 | 0.00 | 0.00 | 42 | 1005.9 |
| 20260906004546 | 66 | 0 | 0.0 | 0.0 | 0.00 | 0.00 | 0.00 | 47 | 1026.9 |
| 20260906003055 | 70 | 336 | 0.0 | 1.0 | 0.00 | 0.00 | 0.00 | 38 | 1005.7 |
| 20260906003048 | 66 | 0 | 0.0 | 0.0 | 0.00 | 0.00 | 0.00 | 43 | 1026.8 |
| 20260906001559 | 71 | 342 | 0.0 | 1.0 | 0.00 | 0.00 | 0.00 | 37 | 1005.7 |
| 20260906001549 | 67 | 0 | 0.0 | 0.0 | 0.00 | 0.00 | 0.00 | 42 | 1026.8 |
| 20260906000053 | 72 | 342 | 0.0 | 3.0 | 0.00 | 0.00 | 0.00 | 36 | 1005.5 |
| 20260906000048 | 68 | 0 | 0.0 | 0.0 | 0.00 | 0.00 | 0.00 | 39 | 1026.6 |
| 20260905234552 | 73 | 336 | 0.0 | 2.0 | 0.00 | 0.00 | 0.00 | 34 | 1005.4 |
| 20260905234541 | 69 | 0 | 0.0 | 2.0 | 0.00 | 0.00 | 0.00 | 38 | 1026.5 |
| 20260905233106 | 74 | 336 | 0.0 | 3.0 | 0.00 | 0.00 | 0.00 | 32 | 1005.2 |
| 20260905233056 | 70 | 0 | 1.0 | 6.0 | 0.00 | 0.00 | 0.00 | 36 | 1026.5 |
| 20260905231554 | 76 | 34 | 0.0 | 2.0 | 0.00 | 0.00 | 0.00 | 31 | 1004.7 |
| 20260905231550 | 71 | 300 | 3.0 | 8.0 | 0.00 | 0.00 | 0.00 | 34 | 1026.3 |
| 20260905230052 | 72 | 301 | 2.0 | 9.0 | 0.00 | 0.00 | 0.00 | 33 | 1026.3 |
| 20260905230048 | 78 | 96 | 0.0 | 3.0 | 0.00 | 0.00 | 0.00 | 29 | 1004.6 |